createdAt,value
2018-12-12T00:01:55.951Z,83.09
2018-12-12T00:04:27.055Z,83.19
2018-12-12T00:06:58.523Z,82.83
2018-12-12T00:09:30.152Z,83.22
2018-12-12T00:12:01.383Z,82.66
2018-12-12T00:14:32.559Z,82.62
2018-12-12T00:17:03.747Z,82.49
2018-12-12T00:19:34.565Z,83.06
2018-12-12T00:22:08.199Z,83.36
2018-12-12T00:24:37.727Z,83.48
2018-12-12T00:27:08.523Z,82.90
2018-12-12T00:29:42.279Z,83.12
2018-12-12T00:32:13.674Z,82.97
2018-12-12T00:34:47.441Z,83.12
2018-12-12T00:37:18.757Z,82.93
2018-12-12T00:39:47.965Z,83.42
2018-12-12T00:42:18.765Z,83.69
2018-12-12T00:44:49.938Z,83.84
2018-12-12T00:47:20.986Z,83.16
2018-12-12T00:49:54.755Z,83.66
2018-12-12T00:52:26.099Z,83.30
2018-12-12T00:54:57.223Z,83.84
2018-12-12T00:57:28.594Z,83.53
2018-12-12T00:59:59.549Z,83.09
2018-12-12T01:02:30.295Z,83.62
2018-12-12T01:05:01.177Z,83.44
2018-12-12T01:07:32.603Z,83.41
2018-12-12T01:13:08.424Z,83.34
2018-12-12T01:15:39.379Z,83.36
2018-12-12T01:18:10.650Z,83.72
2018-12-12T01:20:44.463Z,83.44
2018-12-12T01:23:18.629Z,83.49
2018-12-12T01:25:50.252Z,83.94
2018-12-12T01:28:23.840Z,83.41
2018-12-12T01:30:57.695Z,83.29
2018-12-12T01:33:29.083Z,84.02
2018-12-12T01:36:00.060Z,83.54
2018-12-12T01:38:31.164Z,83.12
2018-12-12T01:41:02.167Z,83.52
2018-12-12T01:43:33.141Z,83.03
2018-12-12T01:46:08.631Z,82.67
2018-12-12T01:48:42.780Z,82.91
2018-12-12T01:51:13.948Z,83.03
2018-12-12T01:53:46.927Z,83.52
2018-12-12T01:56:18.071Z,82.68
2018-12-12T01:58:49.788Z,82.98
2018-12-12T02:01:21.007Z,83.00
2018-12-12T02:03:52.099Z,82.79
2018-12-12T02:06:23.251Z,83.19
2018-12-12T02:08:54.271Z,82.61
2018-12-12T02:11:27.679Z,83.61
2018-12-12T02:13:58.999Z,83.14
2018-12-12T02:16:30.215Z,83.51
2018-12-12T02:19:01.211Z,83.25
2018-12-12T02:24:35.922Z,83.27
2018-12-12T02:27:09.359Z,83.12
2018-12-12T02:29:43.108Z,83.14
2018-12-12T02:32:14.535Z,83.51
2018-12-12T02:34:45.898Z,83.12
2018-12-12T02:37:16.857Z,83.54
2018-12-12T02:39:50.498Z,83.06
2018-12-12T02:42:22.056Z,83.38
2018-12-12T02:44:55.546Z,82.94
2018-12-12T02:47:24.976Z,83.12
2018-12-12T02:50:00.491Z,82.82
2018-12-12T02:52:31.791Z,83.35
2018-12-12T02:55:03.112Z,83.33
2018-12-12T02:57:32.807Z,83.00
2018-12-12T03:00:04.894Z,83.42
2018-12-12T03:02:37.064Z,83.58
2018-12-12T03:05:10.928Z,83.14
2018-12-12T03:07:42.087Z,83.14
2018-12-12T03:10:13.184Z,83.64
2018-12-12T03:12:44.938Z,83.23
2018-12-12T03:15:15.737Z,83.80
2018-12-12T03:17:46.786Z,83.57
2018-12-12T03:20:17.810Z,84.23
2018-12-12T03:22:48.899Z,83.59
2018-12-12T03:25:22.457Z,84.13
2018-12-12T03:27:53.825Z,84.07
2018-12-12T03:30:24.732Z,84.55
2018-12-12T03:32:55.815Z,84.38
2018-12-12T03:35:26.719Z,84.40
2018-12-12T03:37:57.759Z,84.86
2018-12-12T03:40:29.517Z,84.91
2018-12-12T03:43:01.300Z,84.19
2018-12-12T03:45:32.969Z,84.62
2018-12-12T03:48:03.964Z,84.36
2018-12-12T03:50:38.117Z,84.62
2018-12-12T03:53:14.103Z,84.60
2018-12-12T03:55:45.677Z,84.60
2018-12-12T03:58:16.579Z,84.39
2018-12-12T04:00:47.673Z,83.82
2018-12-12T04:03:18.748Z,84.26
2018-12-12T04:05:50.549Z,84.44
2018-12-12T04:08:21.638Z,84.65
2018-12-12T04:13:56.923Z,84.68
2018-12-12T04:16:28.303Z,84.79
2018-12-12T04:19:00.100Z,84.60
2018-12-12T04:21:31.171Z,84.68
2018-12-12T04:24:02.933Z,84.61
2018-12-12T04:26:33.957Z,84.50
2018-12-12T04:29:04.841Z,84.34
2018-12-12T04:31:38.224Z,84.43
2018-12-12T04:34:09.625Z,84.63
2018-12-12T04:36:40.855Z,84.31
2018-12-12T04:39:11.731Z,84.24
2018-12-12T04:41:42.796Z,84.58
2018-12-12T04:44:13.808Z,84.14
2018-12-12T04:46:47.348Z,84.14
2018-12-12T04:49:18.763Z,83.88
2018-12-12T04:51:52.271Z,83.88
2018-12-12T04:54:26.159Z,84.15
2018-12-12T04:56:57.759Z,84.09
2018-12-12T04:59:31.616Z,84.36
2018-12-12T05:02:06.083Z,83.44
2018-12-12T05:04:37.736Z,83.77
2018-12-12T05:07:08.807Z,83.60
2018-12-12T05:09:40.091Z,83.85
2018-12-12T05:12:11.169Z,83.72
2018-12-12T05:14:40.063Z,83.62
2018-12-12T05:17:13.944Z,83.63
2018-12-12T05:19:45.395Z,82.63
2018-12-12T05:22:16.559Z,83.16
2018-12-12T05:24:47.737Z,83.34
2018-12-12T05:27:17.359Z,83.83
2018-12-12T05:29:51.111Z,83.86
2018-12-12T05:32:22.435Z,83.84
2018-12-12T05:34:53.255Z,83.81
2018-12-12T05:37:24.320Z,83.88
2018-12-12T05:39:55.475Z,83.54
2018-12-12T05:42:26.290Z,83.43
2018-12-12T05:44:57.326Z,83.64
2018-12-12T05:47:26.483Z,83.79
2018-12-12T05:49:57.716Z,84.00
2018-12-12T05:52:31.430Z,84.38
2018-12-12T05:55:03.475Z,83.98
2018-12-12T05:57:34.531Z,84.08
2018-12-12T06:00:08.143Z,84.24
2018-12-12T06:02:39.149Z,83.94
2018-12-12T06:05:13.015Z,84.27
2018-12-12T06:07:44.275Z,83.98
2018-12-12T06:10:15.184Z,84.10
2018-12-12T06:12:48.845Z,84.08
2018-12-12T06:18:24.047Z,83.79
2018-12-12T06:20:55.239Z,84.62
2018-12-12T06:23:26.163Z,84.27
2018-12-12T06:25:57.375Z,84.25
2018-12-12T06:28:28.956Z,84.48
2018-12-12T06:31:00.091Z,84.69
2018-12-12T06:33:31.367Z,84.65
2018-12-12T06:36:02.363Z,84.07
2018-12-12T06:38:33.326Z,84.81
2018-12-12T06:41:06.394Z,84.08
2018-12-12T06:43:37.628Z,84.10
2018-12-12T06:46:08.700Z,84.42
2018-12-12T06:48:39.735Z,83.97
2018-12-12T06:51:10.906Z,83.59
2018-12-12T06:53:41.723Z,84.30
2018-12-12T06:56:12.911Z,84.15
2018-12-12T06:58:43.710Z,84.45
2018-12-12T07:01:14.821Z,84.56
2018-12-12T07:03:48.324Z,83.91
2018-12-12T07:06:19.791Z,84.61
2018-12-12T07:08:52.010Z,84.32
2018-12-12T07:11:25.521Z,84.47
2018-12-12T07:13:57.192Z,84.49
2018-12-12T07:16:30.691Z,84.13
2018-12-12T07:19:01.758Z,84.12
2018-12-12T07:21:33.008Z,84.64
2018-12-12T07:24:04.035Z,84.46
2018-12-12T07:26:37.563Z,85.14
2018-12-12T07:29:09.267Z,84.53
2018-12-12T07:31:40.041Z,84.57
2018-12-12T07:34:11.010Z,84.34
2018-12-12T07:36:41.904Z,84.73
2018-12-12T07:39:17.879Z,84.72
2018-12-12T07:41:46.460Z,84.26
2018-12-12T07:44:18.222Z,85.03
2018-12-12T07:46:49.363Z,84.53
2018-12-12T07:49:19.039Z,84.77
2018-12-12T07:51:49.981Z,85.52
2018-12-12T07:54:20.894Z,84.70
2018-12-12T07:56:51.769Z,84.73
2018-12-12T07:59:22.803Z,85.19
2018-12-12T08:01:54.071Z,84.86
2018-12-12T08:04:31.399Z,85.38
2018-12-12T08:07:05.663Z,85.82
2018-12-12T08:09:37.215Z,84.95
2018-12-12T08:12:08.249Z,85.25
2018-12-12T08:14:39.977Z,85.77
2018-12-12T08:17:10.948Z,86.04
2018-12-12T08:19:42.031Z,85.94
2018-12-12T08:22:13.349Z,86.02
2018-12-12T08:24:45.143Z,85.77
2018-12-12T08:27:16.134Z,85.54
2018-12-12T08:29:47.066Z,85.84
2018-12-12T08:32:18.376Z,85.66
2018-12-12T08:34:49.291Z,85.45
2018-12-12T08:37:20.374Z,85.56
2018-12-12T08:39:51.276Z,84.78
2018-12-12T08:42:22.435Z,84.43
2018-12-12T08:44:53.527Z,83.83
2018-12-12T08:47:27.118Z,83.89
2018-12-12T08:49:56.539Z,83.90
2018-12-12T08:52:29.995Z,83.92
2018-12-12T08:55:01.157Z,83.35
2018-12-12T08:57:35.815Z,83.04
2018-12-12T09:00:09.855Z,82.64
2018-12-12T09:02:43.488Z,83.74
2018-12-12T09:05:17.351Z,83.30
2018-12-12T09:07:51.427Z,82.28
2018-12-12T09:10:22.295Z,82.51
2018-12-12T09:12:55.815Z,81.99
2018-12-12T09:15:29.528Z,81.96
2018-12-12T09:18:00.759Z,81.25
2018-12-12T09:20:31.743Z,81.51
2018-12-12T09:23:02.739Z,81.17
2018-12-12T09:25:36.413Z,81.27
2018-12-12T09:28:12.227Z,81.87
2018-12-12T09:30:45.527Z,81.61
2018-12-12T09:33:17.175Z,81.31
2018-12-12T09:35:48.299Z,82.30
2018-12-12T09:38:21.751Z,82.04
2018-12-12T09:40:55.547Z,81.80
2018-12-12T09:43:26.592Z,82.00
2018-12-12T09:45:57.486Z,81.71
2018-12-12T09:48:31.112Z,81.69
2018-12-12T09:51:07.072Z,81.82
2018-12-12T09:53:35.676Z,81.79
2018-12-12T09:56:06.605Z,81.70
2018-12-12T09:58:38.265Z,81.61
2018-12-12T10:01:09.823Z,80.99
2018-12-12T10:03:41.704Z,80.88
2018-12-12T10:06:13.227Z,81.23
2018-12-12T10:08:44.117Z,80.58
2018-12-12T10:11:20.348Z,80.91
2018-12-12T10:13:51.855Z,80.59
2018-12-12T10:16:23.112Z,79.89
2018-12-12T10:18:54.540Z,81.13
2018-12-12T10:21:26.068Z,79.95
2018-12-12T10:23:57.268Z,79.69
2018-12-12T10:26:28.351Z,79.24
2018-12-12T10:28:59.707Z,78.21
2018-12-12T10:31:30.601Z,78.88
2018-12-12T10:34:01.805Z,77.44
2018-12-12T10:36:32.676Z,77.60
2018-12-12T10:39:07.771Z,77.63
2018-12-12T10:41:39.438Z,76.32
2018-12-12T10:44:10.347Z,76.25
2018-12-12T10:46:41.575Z,75.31
2018-12-12T10:49:12.397Z,76.33
2018-12-12T10:51:43.691Z,75.72
2018-12-12T10:54:14.812Z,75.15
2018-12-12T10:56:46.004Z,75.88
2018-12-12T10:59:17.883Z,75.91
2018-12-12T11:01:50.798Z,75.43
2018-12-12T11:04:21.901Z,74.80
2018-12-12T11:06:55.524Z,76.75
2018-12-12T11:09:26.903Z,74.60
2018-12-12T11:11:58.115Z,74.96
2018-12-12T11:14:29.246Z,73.57
2018-12-12T11:17:00.991Z,74.47
2018-12-12T11:19:32.003Z,73.68
2018-12-12T11:22:03.027Z,73.42
2018-12-12T11:24:34.026Z,73.23
2018-12-12T11:27:05.054Z,73.57
2018-12-12T11:29:36.149Z,75.46
2018-12-12T11:32:07.408Z,72.77
2018-12-12T11:34:39.259Z,73.44
2018-12-12T11:37:10.362Z,74.52
2018-12-12T11:39:41.044Z,74.78
2018-12-12T11:42:13.497Z,74.16
2018-12-12T11:44:44.340Z,73.21
2018-12-12T11:47:15.982Z,74.04
2018-12-12T11:49:45.242Z,73.02
2018-12-12T11:52:16.209Z,74.79
2018-12-12T11:54:47.410Z,73.69
2018-12-12T11:57:18.743Z,74.11
2018-12-12T11:59:50.200Z,73.95
2018-12-12T12:02:21.331Z,73.43
2018-12-12T12:04:54.763Z,73.55
2018-12-12T12:07:26.271Z,74.00
2018-12-12T12:09:58.071Z,73.02
2018-12-12T12:15:04.829Z,74.62
2018-12-12T12:17:39.280Z,74.22
2018-12-12T12:20:10.500Z,73.77
2018-12-12T12:22:41.495Z,74.08
2018-12-12T12:25:12.523Z,73.51
2018-12-12T12:27:46.239Z,73.11
2018-12-12T12:30:17.386Z,73.77
2018-12-12T12:32:48.419Z,72.16
2018-12-12T12:35:21.681Z,73.44
2018-12-12T12:37:53.027Z,74.27
2018-12-12T12:40:24.151Z,74.44
2018-12-12T12:42:57.868Z,74.85
2018-12-12T12:45:29.420Z,74.31
2018-12-12T12:47:59.099Z,74.53
2018-12-12T12:50:29.970Z,75.05
2018-12-12T12:53:01.259Z,72.04
2018-12-12T12:55:32.931Z,70.82
2018-12-12T12:58:03.998Z,71.71
2018-12-12T13:00:35.041Z,70.58
2018-12-12T13:03:08.697Z,70.74
2018-12-12T13:05:40.043Z,71.50
2018-12-12T13:08:11.148Z,72.53
2018-12-12T13:10:42.397Z,71.01
2018-12-12T13:15:45.127Z,71.76
2018-12-12T13:18:16.063Z,72.61
2018-12-12T13:20:49.130Z,73.05
2018-12-12T13:23:20.697Z,72.74
2018-12-12T13:25:51.529Z,72.47
2018-12-12T13:28:23.412Z,71.50
2018-12-12T13:30:56.707Z,72.66
2018-12-12T13:33:28.000Z,73.59
2018-12-12T13:35:58.776Z,72.42
2018-12-12T13:38:29.868Z,70.27
2018-12-12T13:41:00.772Z,71.17
2018-12-12T13:43:31.599Z,70.58
2018-12-12T13:46:02.762Z,69.48
2018-12-12T13:48:33.682Z,69.68
2018-12-12T13:51:04.375Z,69.36
2018-12-12T13:53:35.424Z,69.35
2018-12-12T13:56:06.676Z,68.31
2018-12-12T13:58:37.713Z,69.00
2018-12-12T14:01:11.178Z,69.09
2018-12-12T14:03:42.571Z,69.89
2018-12-12T14:06:13.631Z,71.10
2018-12-12T14:08:47.059Z,71.04
2018-12-12T14:11:18.441Z,69.35
2018-12-12T14:13:52.009Z,71.13
2018-12-12T14:16:23.623Z,69.91
2018-12-12T14:18:54.570Z,69.20
2018-12-12T14:21:25.517Z,68.80
2018-12-12T14:23:59.067Z,70.25
2018-12-12T14:26:30.476Z,69.95
2018-12-12T14:29:01.419Z,69.08
2018-12-12T14:31:32.711Z,69.08
2018-12-12T14:34:04.477Z,69.30
2018-12-12T14:36:35.327Z,69.62
2018-12-12T14:39:07.272Z,70.07
2018-12-12T14:41:37.995Z,70.14
2018-12-12T14:44:08.751Z,70.47
2018-12-12T14:46:39.577Z,69.58
2018-12-12T14:49:13.120Z,68.84
2018-12-12T14:51:44.396Z,70.45
2018-12-12T14:54:15.375Z,69.76
2018-12-12T14:56:48.973Z,70.44
2018-12-12T14:59:20.300Z,70.40
2018-12-12T15:01:53.973Z,70.71
2018-12-12T15:04:25.341Z,70.14
2018-12-12T15:06:56.299Z,71.45
2018-12-12T15:09:27.313Z,70.57
2018-12-12T15:11:58.955Z,70.18
2018-12-12T15:14:29.999Z,70.85
2018-12-12T15:17:01.581Z,70.71
2018-12-12T15:19:32.754Z,70.79
2018-12-12T15:22:04.257Z,70.18
2018-12-12T15:24:35.561Z,70.01
2018-12-12T15:27:08.649Z,70.83
2018-12-12T15:29:40.231Z,70.52
2018-12-12T15:32:11.147Z,70.71
2018-12-12T15:34:42.449Z,71.48
2018-12-12T15:37:14.167Z,71.91
2018-12-12T15:39:47.992Z,72.20
2018-12-12T15:42:19.373Z,72.80
2018-12-12T15:44:50.323Z,73.53
2018-12-12T15:47:21.719Z,74.11
2018-12-12T15:49:52.964Z,73.81
2018-12-12T15:52:24.555Z,73.88
2018-12-12T15:54:55.907Z,73.78
2018-12-12T15:57:27.046Z,73.74
2018-12-12T15:59:57.931Z,73.99
2018-12-12T16:02:28.831Z,73.88
2018-12-12T16:05:00.183Z,73.87
2018-12-12T16:07:29.891Z,74.04
2018-12-12T16:10:00.799Z,74.30
2018-12-12T16:12:32.282Z,74.28
2018-12-12T16:15:06.380Z,75.05
2018-12-12T16:17:37.790Z,74.32
2018-12-12T16:20:09.385Z,75.07
2018-12-12T16:22:41.003Z,73.90
2018-12-12T16:25:10.923Z,74.03
2018-12-12T16:27:42.770Z,74.30
2018-12-12T16:30:16.339Z,74.71
2018-12-12T16:32:47.635Z,74.47
2018-12-12T16:35:18.572Z,73.92
2018-12-12T16:37:49.440Z,73.94
2018-12-12T16:40:20.461Z,73.86
2018-12-12T16:42:51.511Z,74.20
2018-12-12T16:45:22.647Z,73.92
2018-12-12T16:47:53.559Z,74.33
2018-12-12T16:50:24.765Z,73.57
2018-12-12T16:52:55.731Z,73.73
2018-12-12T16:55:26.911Z,74.20
2018-12-12T16:57:57.860Z,73.90
2018-12-12T17:00:28.755Z,73.68
2018-12-12T17:02:59.972Z,73.25
2018-12-12T17:05:31.085Z,74.01
2018-12-12T17:08:02.779Z,73.96
2018-12-12T17:10:34.506Z,73.74
2018-12-12T17:13:06.207Z,73.49
2018-12-12T17:15:37.582Z,73.75
2018-12-12T17:18:09.503Z,73.35
2018-12-12T17:20:41.438Z,72.90
2018-12-12T17:23:15.854Z,72.63
2018-12-12T17:25:47.227Z,71.49
2018-12-12T17:28:20.759Z,72.82
2018-12-12T17:30:52.193Z,72.56
2018-12-12T17:33:23.327Z,72.25
2018-12-12T17:35:56.871Z,73.22
2018-12-12T17:38:28.324Z,72.89
2018-12-12T17:40:59.265Z,72.06
2018-12-12T17:43:30.113Z,71.72
2018-12-12T17:46:01.327Z,71.27
2018-12-12T17:48:32.294Z,71.00
2018-12-12T17:51:03.344Z,71.50
2018-12-12T17:53:34.191Z,71.50
2018-12-12T17:56:05.594Z,72.71
2018-12-12T17:58:38.891Z,71.87
2018-12-12T18:01:10.507Z,73.15
2018-12-12T18:03:41.262Z,72.34
2018-12-12T18:06:12.156Z,72.79
2018-12-12T18:08:43.115Z,71.72
2018-12-12T18:11:14.061Z,72.15
2018-12-12T18:13:45.219Z,72.70
2018-12-12T18:16:18.890Z,73.49
2018-12-12T18:23:56.518Z,74.14
2018-12-12T18:26:30.120Z,73.94
2018-12-12T18:29:01.455Z,74.65
2018-12-12T18:31:32.426Z,75.60
2018-12-12T18:34:04.154Z,75.08
2018-12-12T18:36:35.848Z,75.61
2018-12-12T18:39:07.382Z,75.97
2018-12-12T18:41:41.003Z,76.47
2018-12-12T18:44:12.231Z,76.72
2018-12-12T18:46:41.500Z,77.28
2018-12-12T18:49:12.473Z,77.34
2018-12-12T18:51:43.526Z,77.50
2018-12-12T18:54:14.429Z,77.42
2018-12-12T18:56:45.718Z,77.24
2018-12-12T18:59:17.213Z,77.84
2018-12-12T19:01:48.290Z,77.59
2018-12-12T19:04:19.178Z,77.79
2018-12-12T19:06:50.435Z,77.60
2018-12-12T19:09:21.203Z,77.42
2018-12-12T19:11:52.100Z,77.61
2018-12-12T19:14:23.258Z,77.66
2018-12-12T19:16:54.590Z,77.51
2018-12-12T19:19:28.038Z,78.19
2018-12-12T19:21:59.351Z,77.98
2018-12-12T19:24:30.515Z,78.16
2018-12-12T19:27:01.567Z,78.38
2018-12-12T19:29:32.735Z,77.67
2018-12-12T19:32:03.994Z,77.98
2018-12-12T19:34:35.650Z,78.20
2018-12-12T19:37:06.857Z,78.18
2018-12-12T19:39:38.599Z,78.37
2018-12-12T19:42:10.582Z,78.00
2018-12-12T19:44:42.541Z,78.53
2018-12-12T19:47:14.044Z,77.91
2018-12-12T19:49:44.979Z,78.20
2018-12-12T19:52:16.493Z,77.93
2018-12-12T19:54:50.121Z,78.48
2018-12-12T19:57:21.583Z,77.93
2018-12-12T19:59:53.295Z,78.45
2018-12-12T20:02:24.358Z,78.21
2018-12-12T20:04:55.466Z,78.38
2018-12-12T20:07:26.827Z,78.12
2018-12-12T20:09:58.575Z,77.91
2018-12-12T20:12:32.262Z,77.81
2018-12-12T20:15:05.455Z,78.29
2018-12-12T20:17:37.056Z,78.27
2018-12-12T20:20:08.328Z,78.06
2018-12-12T20:25:11.755Z,78.00
2018-12-12T20:27:42.747Z,78.47
2018-12-12T20:30:13.847Z,78.10
2018-12-12T20:32:45.642Z,78.33
2018-12-12T20:35:16.623Z,78.38
2018-12-12T20:37:50.766Z,78.60
2018-12-12T20:40:22.388Z,78.49
2018-12-12T20:42:59.420Z,78.25
2018-12-12T20:45:30.318Z,78.22
2018-12-12T20:48:01.407Z,78.51
2018-12-12T20:50:32.447Z,78.13
2018-12-12T20:53:03.671Z,78.69
2018-12-12T20:55:34.728Z,78.53
2018-12-12T20:58:06.075Z,78.35
2018-12-12T21:00:37.087Z,77.98
2018-12-12T21:03:08.167Z,78.31
2018-12-12T21:05:38.975Z,78.20
2018-12-12T21:08:09.755Z,78.32
2018-12-12T21:10:43.522Z,78.81
2018-12-12T21:13:14.996Z,78.49
2018-12-12T21:15:47.314Z,78.43
2018-12-12T21:18:19.096Z,78.67
2018-12-12T21:20:50.167Z,78.52
2018-12-12T21:23:21.017Z,78.12
2018-12-12T21:33:27.027Z,78.65
2018-12-12T21:36:00.877Z,78.71
2018-12-12T21:38:31.145Z,78.62
2018-12-12T21:41:04.382Z,78.86
2018-12-12T21:43:35.232Z,78.59
2018-12-12T21:46:06.111Z,78.88
2018-12-12T21:48:37.727Z,78.87
2018-12-12T21:51:09.203Z,78.86
2018-12-12T21:53:40.090Z,78.62
2018-12-12T21:56:11.229Z,78.58
2018-12-12T21:58:42.971Z,78.95
2018-12-12T22:01:14.245Z,79.04
2018-12-12T22:03:45.284Z,78.89
2018-12-12T22:06:16.733Z,79.06
2018-12-12T22:08:47.988Z,79.00
2018-12-12T22:11:19.096Z,79.40
2018-12-12T22:13:49.949Z,79.14
2018-12-12T22:16:21.055Z,79.20
2018-12-12T22:18:52.035Z,79.50
2018-12-12T22:21:22.931Z,79.53
2018-12-12T22:23:53.976Z,80.04
2018-12-12T22:26:25.310Z,79.61
2018-12-12T22:28:57.107Z,79.74
2018-12-12T22:31:28.989Z,80.21
2018-12-12T22:34:02.499Z,79.79
2018-12-12T22:36:33.607Z,79.42
2018-12-12T22:39:07.186Z,79.65
2018-12-12T22:41:38.626Z,79.46
2018-12-12T22:44:09.382Z,79.44
2018-12-12T22:46:40.530Z,79.70
2018-12-12T22:49:11.231Z,79.44
2018-12-12T22:51:42.100Z,79.81
2018-12-12T22:54:12.855Z,79.68
2018-12-12T22:56:44.023Z,79.74
2018-12-12T22:59:15.061Z,80.01
2018-12-12T23:01:46.771Z,79.61
2018-12-12T23:04:17.695Z,80.36
2018-12-12T23:06:48.599Z,80.21
2018-12-12T23:09:19.437Z,80.38
2018-12-12T23:11:50.375Z,80.49
2018-12-12T23:14:21.615Z,80.51
2018-12-12T23:16:53.072Z,80.37
2018-12-12T23:19:24.921Z,80.49
2018-12-12T23:21:56.656Z,81.00
2018-12-12T23:24:30.252Z,80.27
2018-12-12T23:27:01.944Z,80.31
2018-12-12T23:29:32.635Z,80.82
2018-12-12T23:42:03.825Z,82.95
2018-12-12T23:44:34.871Z,83.03
2018-12-12T23:47:06.744Z,83.02
2018-12-12T23:49:37.683Z,82.87
2018-12-12T23:52:08.700Z,83.32
2018-12-12T23:54:39.803Z,83.37
2018-12-12T23:57:10.511Z,83.30
2018-12-12T23:59:41.375Z,82.82
